EDDB/SXF METAR and TAF weather

Enter ICAO airport designator
Station Type Date Time Source
EDDB METAR 2022/01/26 19:50 UTC NOAA

EDDB 261950Z 26012KT 4500 BR BKN009 02/01 Q1024 TEMPO 5000 BKN010


Station Type Date Time Source
EDDB Decoded METAR 2022/01/26 19:50 UTC NOAA

Berlin-Schoenefeld, Germany (EDDB) 52-23N 013-31E 50M
Jan 26, 2022 - 02:50 PM EST / 2022.01.26 1950 UTC
Wind: from the W (260 degrees) at 14 MPH (12 KT):0
Visibility: 2 mile(s):0
Sky conditions: mostly cloudy
Weather: mist
Temperature: 35 F (2 C)
Windchill: 26 F (-3 C):1
Dew Point: 33 F (1 C)
Relative Humidity: 93%
Pressure (altimeter): 30.24 in. Hg (1024 hPa)
ob: EDDB 261950Z 26012KT 4500 BR BKN009 02/01 Q1024 TEMPO 5000 BKN010
cycle: 20

Station Type Date Time Source
EDDB TAF 2022/01/26 18:27 UTC NOAA

TAF TAF EDDB 261700Z 2618/2718 25013KT 9999 BKN011
BECMG 2618/2622 BKN009
BECMG 2623/2702 BKN012
BECMG 2704/2706 24015G25KT BKN025
TEMPO 2706/2712 BKN012
BECMG 2708/2710 25020G30KT

Example: see airport list